Time;durP1;ratioP1;P1;durP2;ratioP2;P2;SDS_P1;SDS_P2;PMS_P1;PMS_P2;Temp;Humidity;BMP_temperature;BMP_pressure;BME280_temperature;BME280_humidity;BME280_pressure;Samples;Min_cycle;Max_cycle;Signal;HPM_P1;HPM_P2
2021/07/29 00:00:32;;;;;;;7.87;7.27;;;16.20;99.90;;;;;;5034416;28;20203;-68
2021/07/29 00:03:02;;;;;;;8.10;7.50;;;16.20;99.90;;;;;;5035046;28;20199;-67
2021/07/29 00:05:29;;;;;;;8.07;7.37;;;16.20;99.90;;;;;;5034003;28;20262;-66
2021/07/29 00:07:55;;;;;;;8.40;7.80;;;16.20;99.90;;;;;;5034706;28;20582;-69
2021/07/29 00:10:21;;;;;;;8.23;7.63;;;16.20;99.90;;;;;;5034249;28;20211;-68
2021/07/29 00:12:47;;;;;;;8.00;7.40;;;16.20;99.90;;;;;;5034299;28;20229;-68
2021/07/29 00:15:15;;;;;;;8.03;7.43;;;16.20;99.90;;;;;;5033910;28;20218;-68
2021/07/29 00:20:15;;;;;;;7.83;7.30;;;16.00;99.90;;;;;;5034094;28;20262;-67
2021/07/29 00:22:42;;;;;;;8.17;7.47;;;16.10;99.90;;;;;;5033880;28;20172;-68
2021/07/29 00:25:12;;;;;;;8.50;7.80;;;16.10;99.90;;;;;;5033853;28;20233;-68
2021/07/29 00:27:38;;;;;;;8.53;7.67;;;16.10;99.90;;;;;;5034051;28;20262;-68
2021/07/29 00:30:05;;;;;;;10.30;7.67;;;16.10;99.90;;;;;;5033922;28;20616;-67
2021/07/29 00:32:31;;;;;;;7.80;7.20;;;16.10;99.90;;;;;;5034323;28;20178;-69
2021/07/29 00:34:57;;;;;;;7.83;7.33;;;16.20;99.90;;;;;;5035844;28;20700;-68
2021/07/29 00:37:23;;;;;;;8.20;7.60;;;16.20;99.90;;;;;;5035764;28;20258;-68
2021/07/29 00:39:48;;;;;;;8.10;7.50;;;16.10;99.90;;;;;;5034463;28;20210;-66
2021/07/29 00:42:14;;;;;;;8.27;7.57;;;16.10;99.90;;;;;;5035223;28;20665;-68
2021/07/29 00:44:39;;;;;;;8.37;7.30;;;16.10;99.90;;;;;;5032815;28;20192;-69
2021/07/29 00:47:06;;;;;;;7.87;7.17;;;15.90;99.90;;;;;;5032631;28;20178;-68
2021/07/29 00:49:35;;;;;;;8.43;7.83;;;15.90;99.90;;;;;;5032807;28;20187;-69
2021/07/29 00:52:01;;;;;;;10.17;7.43;;;15.90;99.90;;;;;;5032497;28;20237;-68
2021/07/29 00:54:29;;;;;;;7.70;7.10;;;15.90;99.90;;;;;;5032190;28;20207;-68
2021/07/29 00:56:55;;;;;;;8.20;7.57;;;15.90;99.90;;;;;;5033744;28;20191;-69
2021/07/29 00:59:21;;;;;;;7.90;7.20;;;15.90;99.90;;;;;;5033663;28;20243;-66
2021/07/29 01:01:47;;;;;;;8.63;7.90;;;16.00;99.90;;;;;;5032164;28;20226;-67
2021/07/29 01:04:13;;;;;;;8.70;7.93;;;16.00;99.90;;;;;;5033612;28;20171;-68
2021/07/29 01:06:39;;;;;;;9.07;8.17;;;16.00;99.90;;;;;;5032883;28;20257;-68
2021/07/29 01:09:09;;;;;;;8.20;7.60;;;15.90;99.90;;;;;;5033801;28;20175;-68
2021/07/29 01:11:42;;;;;;;9.17;8.47;;;15.90;99.90;;;;;;5032509;28;20183;-68
2021/07/29 01:14:09;;;;;;;8.87;8.17;;;15.90;99.90;;;;;;5033513;28;20270;-67
2021/07/29 01:16:35;;;;;;;10.40;8.73;;;15.90;99.90;;;;;;5032960;28;20199;-67
2021/07/29 01:19:01;;;;;;;11.53;9.00;;;15.80;99.90;;;;;;5032356;28;20178;-68
2021/07/29 01:21:28;;;;;;;8.93;8.23;;;15.60;99.90;;;;;;5032137;28;20222;-68
2021/07/29 01:23:54;;;;;;;8.37;7.60;;;15.50;99.90;;;;;;5032975;28;20513;-67
2021/07/29 01:26:20;;;;;;;8.60;7.50;;;15.30;99.90;;;;;;5032118;28;20536;-68
2021/07/29 01:28:46;;;;;;;9.53;8.63;;;15.10;99.90;;;;;;5033346;28;20179;-68
2021/07/29 01:31:12;;;;;;;13.70;8.90;;;15.00;99.90;;;;;;5032932;28;20681;-67
2021/07/29 01:33:38;;;;;;;9.63;8.80;;;15.10;99.90;;;;;;5032929;28;20203;-66
2021/07/29 01:36:04;;;;;;;9.00;8.20;;;15.10;99.90;;;;;;5032200;28;20670;-67
2021/07/29 01:38:30;;;;;;;8.73;8.07;;;15.10;99.90;;;;;;5032048;28;20179;-68
2021/07/29 01:40:56;;;;;;;9.43;8.33;;;15.10;99.90;;;;;;5031265;28;20265;-68
2021/07/29 01:43:21;;;;;;;7.93;7.23;;;15.20;99.90;;;;;;5032044;28;20183;-68
2021/07/29 01:45:47;;;;;;;7.90;7.30;;;15.20;99.90;;;;;;5031103;28;20276;-67
2021/07/29 01:48:13;;;;;;;8.10;7.50;;;15.10;99.90;;;;;;5032483;28;20182;-68
2021/07/29 01:50:39;;;;;;;8.10;7.50;;;15.20;99.90;;;;;;5034408;28;20662;-68
2021/07/29 01:53:04;;;;;;;7.83;7.33;;;15.10;99.90;;;;;;5034322;28;20171;-67
2021/07/29 01:55:30;;;;;;;9.00;8.30;;;15.10;99.90;;;;;;5034443;28;20684;-68
2021/07/29 01:57:55;;;;;;;7.67;7.17;;;15.10;99.90;;;;;;5034876;28;20203;-68
2021/07/29 02:00:22;;;;;;;8.23;7.63;;;15.10;99.90;;;;;;5034360;28;20200;-67
2021/07/29 02:02:48;;;;;;;7.53;7.03;;;15.10;99.90;;;;;;5034790;28;20529;-68
2021/07/29 02:05:14;;;;;;;7.97;7.37;;;15.20;99.90;;;;;;5034074;28;20681;-68
2021/07/29 02:07:39;;;;;;;7.90;7.33;;;15.20;99.90;;;;;;5034443;28;20206;-68
2021/07/29 02:10:06;;;;;;;8.33;7.63;;;15.20;99.90;;;;;;5034381;28;20203;-68
2021/07/29 02:12:31;;;;;;;7.83;7.23;;;15.20;99.90;;;;;;5034360;28;20239;-68
2021/07/29 02:14:58;;;;;;;9.97;7.93;;;15.20;99.90;;;;;;5033989;28;20571;-68
2021/07/29 02:17:23;;;;;;;8.60;7.80;;;15.20;99.90;;;;;;5034362;28;20171;-68
2021/07/29 02:19:49;;;;;;;8.13;7.43;;;15.10;99.90;;;;;;5034072;28;20202;-67
2021/07/29 02:22:15;;;;;;;12.03;7.80;;;15.10;99.90;;;;;;5034330;28;20254;-68
2021/07/29 02:24:41;;;;;;;8.50;7.53;;;15.10;99.90;;;;;;5033812;28;20863;-67
2021/07/29 02:27:07;;;;;;;8.47;7.80;;;15.10;99.90;;;;;;5034328;28;20175;-68
2021/07/29 02:29:32;;;;;;;10.13;8.63;;;15.10;99.90;;;;;;5034131;28;20305;-67
2021/07/29 02:31:58;;;;;;;8.83;7.97;;;15.00;99.90;;;;;;5033942;28;20254;-68
2021/07/29 02:34:23;;;;;;;8.00;7.40;;;15.00;99.90;;;;;;5033723;28;20203;-67
2021/07/29 02:36:50;;;;;;;8.47;7.87;;;14.90;99.90;;;;;;5034070;28;20188;-66
2021/07/29 02:39:16;;;;;;;8.47;7.77;;;14.90;99.90;;;;;;5034165;28;20178;-66
2021/07/29 02:41:42;;;;;;;10.20;7.67;;;14.80;99.90;;;;;;5080865;22;20227;-67
2021/07/29 02:44:07;;;;;;;9.37;8.40;;;14.80;99.90;;;;;;5033526;28;20254;-67
2021/07/29 02:46:33;;;;;;;8.77;7.87;;;14.80;99.90;;;;;;5033348;28;20179;-67
2021/07/29 02:48:59;;;;;;;10.23;8.43;;;14.80;99.90;;;;;;5033847;28;20182;-66
2021/07/29 02:51:25;;;;;;;9.57;8.77;;;14.80;99.90;;;;;;5033380;28;20191;-66
2021/07/29 02:53:50;;;;;;;8.60;7.80;;;14.80;99.90;;;;;;5033303;28;20168;-66
2021/07/29 02:56:16;;;;;;;9.87;8.93;;;14.80;99.90;;;;;;5032754;28;20246;-66
2021/07/29 02:58:43;;;;;;;9.33;8.63;;;14.80;99.90;;;;;;5033630;28;20262;-66
2021/07/29 03:01:09;;;;;;;12.03;8.87;;;14.80;99.90;;;;;;5033007;28;20210;-67
2021/07/29 03:03:34;;;;;;;9.33;8.47;;;14.90;99.90;;;;;;5032123;28;20634;-67
2021/07/29 03:06:01;;;;;;;9.23;8.37;;;14.90;99.90;;;;;;5032554;28;20669;-67
2021/07/29 03:08:26;;;;;;;9.37;8.47;;;14.90;99.90;;;;;;5033159;28;20176;-67
2021/07/29 03:10:52;;;;;;;12.83;9.53;;;15.00;99.90;;;;;;5033335;28;20663;-67
2021/07/29 03:13:18;;;;;;;9.10;8.30;;;15.00;99.90;;;;;;5033194;28;20213;-67
2021/07/29 03:15:44;;;;;;;10.40;9.40;;;15.00;99.90;;;;;;5032702;28;20260;-66
2021/07/29 03:18:10;;;;;;;10.57;9.67;;;15.00;99.90;;;;;;5033086;28;20596;-67
2021/07/29 03:20:35;;;;;;;9.17;8.47;;;15.00;99.90;;;;;;5033010;28;20278;-67
2021/07/29 03:23:01;;;;;;;9.53;8.67;;;15.00;99.90;;;;;;5033031;28;20164;-67
2021/07/29 03:25:27;;;;;;;9.27;8.37;;;15.00;99.90;;;;;;5032480;28;20651;-66
2021/07/29 03:27:52;;;;;;;13.20;8.37;;;15.00;99.90;;;;;;5032591;28;20175;-66
2021/07/29 03:30:18;;;;;;;9.27;8.37;;;15.00;99.90;;;;;;5032760;28;20622;-67
2021/07/29 03:32:43;;;;;;;9.37;8.53;;;15.00;99.90;;;;;;5031407;28;20203;-66
2021/07/29 03:35:09;;;;;;;8.87;8.17;;;15.00;99.90;;;;;;5032510;28;20199;-66
2021/07/29 03:37:35;;;;;;;9.40;8.67;;;15.00;99.90;;;;;;5032600;28;20616;-67
2021/07/29 03:40:04;;;;;;;9.77;9.00;;;14.90;99.90;;;;;;5032558;28;20201;-67
2021/07/29 03:42:31;;;;;;;10.03;9.07;;;14.90;99.90;;;;;;5032725;28;20556;-67
2021/07/29 03:44:57;;;;;;;11.20;9.17;;;14.90;99.90;;;;;;5032219;28;20218;-67
2021/07/29 03:47:23;;;;;;;11.70;8.93;;;14.80;99.90;;;;;;5032632;28;20198;-67
2021/07/29 03:49:49;;;;;;;9.73;8.70;;;14.80;99.90;;;;;;5032375;28;20211;-66
2021/07/29 03:52:15;;;;;;;11.57;9.17;;;14.80;99.90;;;;;;5032457;28;20197;-66
2021/07/29 03:54:40;;;;;;;10.27;9.23;;;14.90;99.90;;;;;;5032084;28;20203;-67
2021/07/29 03:57:08;;;;;;;8.67;7.97;;;14.90;99.90;;;;;;5031717;28;20221;-67
2021/07/29 03:59:39;;;;;;;9.97;9.17;;;14.90;99.90;;;;;;5032264;28;20221;-67
2021/07/29 04:02:10;;;;;;;11.57;8.63;;;15.00;99.90;;;;;;5032099;28;20199;-66
2021/07/29 04:04:40;;;;;;;12.00;8.87;;;15.00;99.90;;;;;;5031190;28;20646;-66
2021/07/29 04:07:07;;;;;;;9.97;8.60;;;15.00;99.90;;;;;;5032149;28;20266;-67
2021/07/29 04:09:33;;;;;;;12.33;8.57;;;15.10;99.90;;;;;;5032200;28;20175;-66
2021/07/29 04:11:59;;;;;;;9.40;8.60;;;15.10;99.90;;;;;;5031022;28;20342;-66
2021/07/29 04:14:25;;;;;;;9.57;8.17;;;15.10;99.90;;;;;;5031892;28;20241;-66
2021/07/29 04:16:53;;;;;;;8.60;7.90;;;15.10;99.90;;;;;;5031942;28;20175;-67
2021/07/29 04:19:19;;;;;;;9.67;8.77;;;15.10;99.90;;;;;;5031786;28;20643;-66
2021/07/29 04:21:44;;;;;;;8.57;7.83;;;15.10;99.90;;;;;;5031792;28;20210;-67
2021/07/29 04:24:10;;;;;;;8.20;7.60;;;15.10;99.90;;;;;;5031708;28;20171;-67
2021/07/29 04:26:36;;;;;;;8.83;8.13;;;15.10;99.90;;;;;;5031968;28;20524;-67
2021/07/29 04:29:01;;;;;;;8.70;7.83;;;15.20;99.90;;;;;;5031976;28;20199;-66
2021/07/29 04:31:27;;;;;;;9.97;8.50;;;15.30;99.90;;;;;;5031333;28;20234;-67
2021/07/29 04:33:52;;;;;;;9.00;7.33;;;15.30;99.90;;;;;;5031591;28;20217;-67
2021/07/29 04:36:19;;;;;;;13.87;8.20;;;15.30;99.90;;;;;;5031513;28;20212;-66
2021/07/29 04:38:45;;;;;;;10.83;7.40;;;15.40;99.90;;;;;;5031954;28;20171;-67
2021/07/29 04:41:10;;;;;;;6.87;6.37;;;15.50;99.90;;;;;;5031354;28;20234;-67
2021/07/29 04:43:36;;;;;;;7.17;6.67;;;15.50;99.90;;;;;;5031779;28;20242;-66
2021/07/29 04:46:05;;;;;;;7.03;6.33;;;15.60;99.90;;;;;;5031230;28;20176;-67
2021/07/29 04:48:33;;;;;;;8.83;7.13;;;15.60;99.90;;;;;;5031343;28;20215;-66
2021/07/29 04:51:06;;;;;;;17.13;7.20;;;15.70;99.90;;;;;;5031486;28;20210;-67
2021/07/29 04:53:32;;;;;;;8.67;6.57;;;15.80;99.90;;;;;;5031627;28;20190;-66
2021/07/29 04:55:58;;;;;;;8.17;6.87;;;15.80;99.90;;;;;;5030819;28;20233;-66
2021/07/29 04:58:24;;;;;;;8.83;6.77;;;15.90;99.90;;;;;;5031530;28;20656;-67
2021/07/29 05:00:50;;;;;;;6.70;6.30;;;16.00;99.90;;;;;;5031230;28;20229;-67
2021/07/29 05:03:15;;;;;;;7.77;6.60;;;16.00;99.90;;;;;;5031494;28;20180;-67
2021/07/29 05:05:41;;;;;;;7.30;6.80;;;16.10;99.90;;;;;;5030381;28;20699;-67
2021/07/29 05:08:07;;;;;;;7.30;6.70;;;16.10;99.90;;;;;;5031497;28;20186;-66
2021/07/29 05:10:32;;;;;;;6.70;6.20;;;16.20;99.90;;;;;;5031132;28;20279;-66
2021/07/29 05:12:58;;;;;;;6.10;5.70;;;16.30;99.90;;;;;;5031408;28;20657;-66
2021/07/29 05:15:24;;;;;;;8.80;6.80;;;16.30;99.90;;;;;;5030909;28;20207;-67
2021/07/29 05:17:54;;;;;;;7.17;6.67;;;16.40;99.90;;;;;;5031163;28;20593;-67
2021/07/29 05:20:21;;;;;;;7.00;6.50;;;16.50;99.90;;;;;;5031061;28;20192;-66
2021/07/29 05:22:46;;;;;;;7.40;6.80;;;16.50;99.90;;;;;;5031410;28;20689;-66
2021/07/29 05:25:12;;;;;;;7.20;6.23;;;16.50;99.90;;;;;;5035030;28;20263;-66
2021/07/29 05:27:38;;;;;;;6.57;6.17;;;16.50;99.90;;;;;;5035029;28;20270;-67
2021/07/29 05:30:04;;;;;;;7.00;6.60;;;16.60;99.90;;;;;;5035053;28;20191;-67
2021/07/29 05:32:30;;;;;;;7.17;6.57;;;16.70;99.90;;;;;;5034844;28;20183;-67
2021/07/29 05:34:56;;;;;;;6.10;5.70;;;16.80;99.90;;;;;;5034854;28;20218;-67
2021/07/29 05:37:21;;;;;;;7.90;6.60;;;16.90;99.90;;;;;;5034225;28;20179;-66
2021/07/29 05:39:47;;;;;;;6.97;6.37;;;16.90;99.90;;;;;;5034748;28;20507;-67
2021/07/29 05:42:14;;;;;;;7.53;6.80;;;17.00;99.90;;;;;;5034763;28;20180;-67
2021/07/29 05:44:39;;;;;;;7.80;7.20;;;17.00;99.90;;;;;;5034739;28;20167;-66
2021/07/29 05:47:05;;;;;;;8.73;7.83;;;17.10;99.90;;;;;;5034746;28;20187;-66
2021/07/29 05:49:30;;;;;;;10.23;7.13;;;17.20;99.90;;;;;;5032888;28;20237;-67
2021/07/29 05:51:56;;;;;;;8.33;7.50;;;17.30;99.90;;;;;;5034317;28;20257;-66
2021/07/29 05:54:22;;;;;;;8.37;7.67;;;17.40;99.90;;;;;;5034428;28;20176;-67
2021/07/29 05:56:47;;;;;;;7.37;6.67;;;17.60;99.90;;;;;;5034360;28;20191;-67
2021/07/29 05:59:13;;;;;;;7.53;6.73;;;17.60;99.90;;;;;;5034697;28;20170;-67
2021/07/29 06:01:38;;;;;;;7.17;6.53;;;17.80;99.90;;;;;;5034165;28;20196;-66
2021/07/29 06:04:04;;;;;;;6.50;6.10;;;18.00;99.90;;;;;;5033718;28;20187;-66
2021/07/29 06:06:29;;;;;;;6.17;5.70;;;18.00;99.90;;;;;;5033771;28;20167;-66
2021/07/29 06:08:58;;;;;;;5.80;5.40;;;18.20;99.90;;;;;;5033357;28;20203;-67
2021/07/29 06:11:24;;;;;;;6.70;6.10;;;18.30;99.90;;;;;;5034130;28;20192;-66
2021/07/29 06:13:50;;;;;;;6.10;5.60;;;18.40;99.90;;;;;;5034132;28;20187;-67
2021/07/29 06:16:17;;;;;;;5.77;5.37;;;18.70;99.90;;;;;;5032655;28;20234;-67
2021/07/29 06:18:48;;;;;;;5.90;5.37;;;18.80;99.90;;;;;;5034300;28;20255;-66
2021/07/29 06:21:14;;;;;;;6.23;5.80;;;19.00;99.90;;;;;;5034100;28;20187;-66
2021/07/29 06:23:40;;;;;;;6.53;6.03;;;19.40;99.90;;;;;;5034078;28;20178;-66
2021/07/29 06:26:09;;;;;;;6.10;5.60;;;19.60;99.90;;;;;;5033557;28;20255;-67
2021/07/29 06:28:34;;;;;;;6.67;5.53;;;19.60;99.90;;;;;;5033967;28;20172;-67
2021/07/29 06:31:00;;;;;;;6.40;5.70;;;19.70;99.90;;;;;;5033718;28;20728;-67
2021/07/29 06:33:25;;;;;;;6.20;5.60;;;19.60;99.90;;;;;;5033823;28;20180;-67
2021/07/29 06:35:51;;;;;;;6.13;5.63;;;19.50;99.90;;;;;;5032536;28;20261;-67
2021/07/29 06:38:16;;;;;;;6.10;5.63;;;19.60;99.90;;;;;;5033799;28;20187;-66
2021/07/29 06:40:42;;;;;;;6.27;5.87;;;19.70;99.90;;;;;;5032456;28;20203;-67
2021/07/29 06:43:08;;;;;;;6.07;5.67;;;19.80;99.90;;;;;;5033068;28;20182;-67
2021/07/29 06:45:33;;;;;;;5.30;5.00;;;20.20;99.90;;;;;;5033180;28;20184;-66
2021/07/29 06:47:59;;;;;;;5.33;5.00;;;20.50;99.90;;;;;;5032709;28;20306;-67
2021/07/29 06:50:24;;;;;;;7.97;5.10;;;20.70;99.90;;;;;;5033435;28;20202;-66
2021/07/29 06:52:50;;;;;;;4.80;4.40;;;21.10;99.90;;;;;;5033578;28;20171;-68
2021/07/29 06:55:15;;;;;;;4.70;4.30;;;21.40;99.90;;;;;;5033297;28;20203;-67
2021/07/29 06:57:41;;;;;;;5.68;4.53;;;21.80;99.90;;;;;;5033561;28;20259;-66
2021/07/29 07:00:07;;;;;;;4.50;4.20;;;22.00;99.90;;;;;;5033347;28;20673;-67
2021/07/29 07:02:33;;;;;;;4.72;4.38;;;22.00;99.90;;;;;;5032993;28;20171;-67
2021/07/29 07:04:59;;;;;;;5.60;5.00;;;21.90;99.90;;;;;;5033129;28;20581;-67
2021/07/29 07:07:25;;;;;;;4.97;4.55;;;22.00;99.90;;;;;;5032114;28;20203;-67
2021/07/29 07:09:50;;;;;;;4.63;4.25;;;22.20;99.90;;;;;;5033898;28;20206;-67
2021/07/29 07:12:16;;;;;;;5.13;4.63;;;22.20;99.90;;;;;;5033282;28;20172;-67
2021/07/29 07:14:41;;;;;;;6.05;4.82;;;22.10;99.90;;;;;;5032681;28;20242;-67
2021/07/29 07:17:07;;;;;;;4.75;4.40;;;22.50;99.90;;;;;;5033185;28;20171;-67
2021/07/29 07:19:34;;;;;;;4.55;4.25;;;22.70;99.90;;;;;;5033047;28;20175;-67
2021/07/29 07:22:01;;;;;;;4.95;4.65;;;22.70;99.90;;;;;;5032987;28;20535;-67
2021/07/29 07:24:27;;;;;;;11.30;4.82;;;22.70;99.90;;;;;;5032738;28;20179;-67
2021/07/29 07:26:53;;;;;;;6.03;4.60;;;22.50;99.90;;;;;;5033158;28;20540;-67
2021/07/29 07:29:18;;;;;;;5.85;4.32;;;22.10;99.90;;;;;;5032967;28;20180;-66
2021/07/29 07:31:44;;;;;;;4.65;4.30;;;22.00;99.90;;;;;;5032854;28;20261;-67
2021/07/29 07:34:09;;;;;;;4.70;4.40;;;21.70;99.90;;;;;;5032467;28;20172;-67
2021/07/29 07:36:35;;;;;;;6.25;4.65;;;21.60;99.90;;;;;;5032721;28;20542;-67
2021/07/29 07:39:01;;;;;;;4.85;4.55;;;21.50;99.90;;;;;;5032908;28;20246;-67
2021/07/29 07:41:26;;;;;;;5.25;4.50;;;21.90;99.90;;;;;;5032485;28;20686;-67
2021/07/29 07:43:52;;;;;;;5.32;5.03;;;21.80;99.90;;;;;;5032347;28;20685;-67
2021/07/29 07:46:17;;;;;;;5.18;4.68;;;21.50;99.90;;;;;;5032626;28;20179;-66
2021/07/29 07:48:43;;;;;;;4.80;4.40;;;21.60;99.90;;;;;;5032347;28;20180;-66
2021/07/29 07:51:09;;;;;;;4.53;4.03;;;21.70;99.90;;;;;;5032475;28;20226;-66
2021/07/29 07:53:35;;;;;;;5.20;4.70;;;21.70;99.90;;;;;;5032505;28;20179;-67
2021/07/29 07:56:05;;;;;;;5.95;4.57;;;21.60;99.90;;;;;;5032360;28;20214;-67
2021/07/29 07:58:31;;;;;;;4.82;4.43;;;21.70;99.90;;;;;;5032722;28;20175;-67
2021/07/29 08:00:56;;;;;;;4.63;4.32;;;21.90;99.90;;;;;;5031811;28;20187;-66
2021/07/29 08:03:22;;;;;;;4.32;4.03;;;22.30;99.90;;;;;;5032627;28;20175;-67
2021/07/29 08:05:48;;;;;;;4.60;4.20;;;22.50;99.90;;;;;;5030759;28;20245;-67
2021/07/29 08:08:13;;;;;;;4.65;4.40;;;22.20;99.90;;;;;;5032138;28;20180;-66
2021/07/29 08:10:40;;;;;;;4.63;4.22;;;22.30;99.90;;;;;;5032193;28;20203;-67
2021/07/29 08:13:06;;;;;;;5.45;4.85;;;22.40;99.90;;;;;;5032409;28;20175;-68
2021/07/29 08:15:33;;;;;;;6.00;4.63;;;22.10;99.90;;;;;;5032000;28;20211;-67
2021/07/29 08:17:59;;;;;;;4.80;4.50;;;22.20;99.90;;;;;;5031965;28;20237;-67
2021/07/29 08:20:25;;;;;;;6.30;5.78;;;22.50;99.90;;;;;;5032063;28;20199;-68
2021/07/29 08:22:55;;;;;;;5.07;4.63;;;22.80;99.90;;;;;;5032356;28;20174;-67
2021/07/29 08:25:22;;;;;;;5.88;4.15;;;23.30;99.90;;;;;;5031977;28;20189;-66
2021/07/29 08:27:48;;;;;;;4.72;4.43;;;23.30;99.90;;;;;;5031955;28;20270;-67
2021/07/29 08:30:15;;;;;;;4.80;4.43;;;23.30;99.90;;;;;;5032072;28;20195;-67
2021/07/29 08:32:45;;;;;;;4.85;4.55;;;23.10;99.90;;;;;;5031846;28;20186;-67
2021/07/29 08:35:11;;;;;;;6.75;4.88;;;22.90;99.90;;;;;;5031749;28;20195;-67
2021/07/29 08:37:38;;;;;;;5.20;4.80;;;23.00;99.90;;;;;;5031835;28;20246;-67
2021/07/29 08:42:41;;;;;;;4.93;4.65;;;22.30;99.90;;;;;;5008818;28;20690;-68
2021/07/29 08:45:08;;;;;;;5.28;4.80;;;21.70;99.90;;;;;;4993807;28;20259;-68
2021/07/29 08:47:34;;;;;;;4.40;4.10;;;21.40;99.90;;;;;;5011725;28;20238;-68
2021/07/29 08:50:06;;;;;;;4.93;4.63;;;21.20;99.90;;;;;;5012170;28;20164;-68
2021/07/29 08:52:32;;;;;;;5.30;4.90;;;20.80;99.90;;;;;;4991984;28;20554;-68
2021/07/29 08:54:59;;;;;;;5.97;5.33;;;20.60;99.90;;;;;;4991962;28;20215;-68
2021/07/29 08:57:27;;;;;;;7.30;5.40;;;20.40;99.90;;;;;;4991320;28;20165;-68
2021/07/29 08:59:52;;;;;;;6.03;5.63;;;20.10;99.90;;;;;;4991703;28;20169;-68
2021/07/29 09:02:22;;;;;;;5.47;5.07;;;20.10;99.90;;;;;;4991480;28;20280;-68
2021/07/29 09:05:10;;;;;;;6.00;4.77;;;20.00;99.90;;;;;;4991598;28;20283;-67
2021/07/29 09:07:37;;;;;;;4.90;4.53;;;20.10;99.90;;;;;;4992125;28;20211;-67
2021/07/29 09:10:37;;;;;;;5.70;5.30;;;20.10;99.90;;;;;;4990419;28;20534;-68
2021/07/29 09:13:07;;;;;;;4.70;4.30;;;20.60;99.90;;;;;;4988146;28;20220;-68
2021/07/29 09:15:34;;;;;;;5.25;4.55;;;21.30;99.90;;;;;;4991174;28;20201;-68
2021/07/29 09:18:00;;;;;;;6.00;4.47;;;21.90;99.90;;;;;;4992220;28;20184;-68
2021/07/29 09:20:25;;;;;;;4.85;4.25;;;22.60;99.90;;;;;;4974391;28;20208;-68
2021/07/29 09:22:52;;;;;;;4.70;4.40;;;23.10;99.90;;;;;;4992041;28;20177;-68
2021/07/29 09:25:22;;;;;;;4.68;4.30;;;22.50;99.90;;;;;;4990145;28;20271;-68
2021/07/29 09:27:51;;;;;;;5.65;4.30;;;22.00;99.90;;;;;;4992072;28;20691;-68
2021/07/29 09:30:24;;;;;;;4.60;4.40;;;21.40;99.90;;;;;;4991536;28;20215;-67
2021/07/29 09:33:16;;;;;;;4.72;4.32;;;21.50;99.90;;;;;;4991956;28;20268;-68
2021/07/29 09:35:46;;;;;;;4.70;4.30;;;22.00;99.90;;;;;;4973806;28;20215;-67
2021/07/29 09:38:30;;;;;;;4.47;4.18;;;22.40;99.90;;;;;;4991790;28;20185;-68
2021/07/29 09:40:59;;;;;;;4.70;4.40;;;23.00;99.90;;;;;;4970777;28;20328;-68
2021/07/29 09:43:33;;;;;;;4.75;4.35;;;23.40;99.90;;;;;;4982995;28;20587;-68
2021/07/29 09:46:01;;;;;;;5.25;4.20;;;23.90;99.90;;;;;;4991626;28;20251;-68
2021/07/29 09:48:27;;;;;;;8.68;4.47;;;23.90;99.90;;;;;;4991543;28;20187;-68
2021/07/29 09:50:55;;;;;;;5.47;5.03;;;23.20;99.90;;;;;;4991629;28;20189;-68
2021/07/29 09:53:23;;;;;;;4.60;4.30;;;22.20;99.90;;;;;;4973875;28;20559;-68
2021/07/29 09:55:49;;;;;;;5.70;4.97;;;21.50;99.90;;;;;;4991437;28;20915;-68
2021/07/29 09:58:15;;;;;;;6.50;6.00;;;21.00;99.90;;;;;;4974007;28;20265;-68
2021/07/29 10:00:41;;;;;;;5.67;5.27;;;20.60;99.90;;;;;;4991580;28;20197;-68
2021/07/29 10:03:08;;;;;;;5.73;5.43;;;20.70;99.90;;;;;;4990848;28;20235;-67
2021/07/29 10:06:12;;;;;;;5.13;4.73;;;21.10;99.90;;;;;;4991265;28;20177;-67
2021/07/29 10:09:00;;;;;;;4.87;4.57;;;21.60;99.90;;;;;;4893355;29;20191;-69
2021/07/29 10:11:29;;;;;;;4.80;4.40;;;21.80;99.90;;;;;;4987916;28;20209;-68
2021/07/29 10:13:54;;;;;;;4.40;4.20;;;21.70;99.90;;;;;;4994857;28;20168;-68
2021/07/29 10:16:48;;;;;;;5.70;5.30;;;21.80;99.90;;;;;;4994503;28;20687;-68
2021/07/29 10:19:15;;;;;;;5.60;5.20;;;21.70;99.90;;;;;;4994818;28;20267;-68
2021/07/29 10:21:41;;;;;;;5.40;5.03;;;21.60;99.90;;;;;;4977367;28;20836;-68
2021/07/29 10:24:13;;;;;;;4.55;4.15;;;22.10;99.90;;;;;;4994278;28;20177;-68
2021/07/29 10:27:08;;;;;;;5.70;5.15;;;22.70;99.90;;;;;;4994675;28;20252;-68
2021/07/29 10:29:34;;;;;;;4.60;4.30;;;23.70;99.90;;;;;;4973989;28;20204;-68
2021/07/29 10:32:11;;;;;;;5.22;4.60;;;24.50;99.90;;;;;;4994560;28;20192;-68
2021/07/29 10:34:38;;;;;;;5.05;4.75;;;25.00;99.90;;;;;;4994249;28;20207;-68
2021/07/29 10:37:05;;;;;;;5.22;4.63;;;24.60;99.90;;;;;;4977324;28;20590;-67
2021/07/29 10:39:31;;;;;;;6.70;5.47;;;24.50;99.90;;;;;;4994226;28;20200;-67
2021/07/29 10:42:01;;;;;;;6.38;4.95;;;24.50;99.90;;;;;;4977250;28;20746;-67
2021/07/29 10:44:34;;;;;;;6.75;4.25;;;23.80;99.90;;;;;;4976743;28;20184;-67
2021/07/29 10:47:14;;;;;;;6.22;5.15;;;23.30;99.90;;;;;;4975965;28;20701;-67
2021/07/29 10:49:49;;;;;;;4.85;4.45;;;22.70;99.90;;;;;;4994318;28;20529;-67
2021/07/29 10:52:16;;;;;;;5.27;4.87;;;22.10;99.90;;;;;;4974701;28;20203;-68
2021/07/29 10:54:44;;;;;;;5.18;4.78;;;21.50;99.90;;;;;;4993349;28;20249;-67
2021/07/29 10:57:12;;;;;;;5.85;5.22;;;21.30;99.90;;;;;;4994326;28;20177;-67
2021/07/29 10:59:39;;;;;;;4.78;4.47;;;21.40;99.90;;;;;;4976808;28;20184;-67
2021/07/29 11:02:09;;;;;;;6.15;5.07;;;21.60;99.90;;;;;;4976798;28;20279;-67
2021/07/29 11:04:59;;;;;;;5.10;4.70;;;21.80;99.90;;;;;;4993136;28;20217;-67
2021/07/29 11:07:28;;;;;;;4.95;4.55;;;21.60;99.90;;;;;;4993739;28;20184;-67
2021/07/29 11:10:02;;;;;;;5.28;4.97;;;21.70;99.90;;;;;;4994038;28;20211;-67
2021/07/29 11:12:30;;;;;;;5.78;5.28;;;22.00;99.90;;;;;;4993609;28;20287;-67
2021/07/29 11:14:58;;;;;;;5.15;4.70;;;22.30;99.90;;;;;;4993405;28;20220;-67
2021/07/29 11:17:24;;;;;;;5.65;5.28;;;21.90;99.90;;;;;;4993590;28;20207;-66
2021/07/29 11:19:49;;;;;;;6.57;6.03;;;21.60;99.90;;;;;;4993750;28;20628;-67
2021/07/29 11:22:15;;;;;;;5.35;4.85;;;21.60;99.90;;;;;;4992852;28;20228;-67
2021/07/29 11:24:41;;;;;;;4.93;4.20;;;22.30;99.90;;;;;;4993266;28;20181;-68
2021/07/29 11:27:13;;;;;;;5.28;4.78;;;23.00;99.90;;;;;;4993539;28;20732;-67
2021/07/29 11:29:59;;;;;;;6.38;4.55;;;23.80;99.90;;;;;;4993621;28;20270;-68
2021/07/29 11:32:43;;;;;;;5.85;4.82;;;24.30;99.90;;;;;;4975556;28;20675;-67
2021/07/29 11:35:11;;;;;;;4.78;4.40;;;24.90;99.90;;;;;;4993272;28;20240;-67
2021/07/29 11:37:36;;;;;;;4.75;4.35;;;25.20;99.90;;;;;;4975303;28;20188;-67
2021/07/29 11:40:05;;;;;;;4.75;4.35;;;25.70;99.90;;;;;;4993318;28;20536;-67
2021/07/29 11:42:33;;;;;;;4.60;4.30;;;26.20;99.90;;;;;;4992763;28;20580;-67
2021/07/29 11:44:58;;;;;;;5.18;4.68;;;26.10;99.90;;;;;;4975914;28;20636;-68
2021/07/29 11:47:35;;;;;;;4.63;4.28;;;25.40;99.90;;;;;;4975568;28;20211;-67
2021/07/29 11:50:01;;;;;;;4.25;4.05;;;24.50;99.90;;;;;;4993180;28;20169;-67
2021/07/29 11:52:27;;;;;;;5.20;4.75;;;24.70;99.90;;;;;;4992568;28;20206;-67
2021/07/29 11:55:14;;;;;;;7.82;4.90;;;25.10;99.90;;;;;;4992740;28;20200;-67
2021/07/29 11:57:40;;;;;;;5.57;5.07;;;25.90;99.90;;;;;;4992807;28;20204;-67
2021/07/29 12:00:07;;;;;;;4.95;4.60;;;26.40;99.90;;;;;;4992872;28;20223;-67
2021/07/29 12:02:33;;;;;;;4.10;3.80;;;26.40;99.90;;;;;;4992936;28;20263;-67
2021/07/29 12:04:59;;;;;;;4.90;4.50;;;26.70;99.90;;;;;;4992765;28;20615;-67
2021/07/29 12:07:25;;;;;;;4.88;4.47;;;26.70;99.90;;;;;;4991838;28;20231;-67
2021/07/29 12:09:51;;;;;;;5.00;4.60;;;26.50;99.90;;;;;;4992938;28;20208;-67
2021/07/29 12:12:17;;;;;;;5.00;4.57;;;26.60;99.90;;;;;;4992456;28;20722;-67
2021/07/29 12:14:46;;;;;;;5.03;4.50;;;26.60;99.90;;;;;;4974976;28;20280;-67
2021/07/29 12:17:20;;;;;;;5.20;4.82;;;26.90;99.90;;;;;;4975062;28;20232;-67
2021/07/29 12:20:05;;;;;;;4.53;4.22;;;26.90;99.90;;;;;;4992904;28;20168;-67
2021/07/29 12:22:31;;;;;;;5.22;4.75;;;27.30;99.90;;;;;;4992165;28;20675;-67
2021/07/29 12:25:00;;;;;;;5.35;4.72;;;27.50;99.90;;;;;;4992403;28;20169;-67
2021/07/29 12:27:25;;;;;;;4.82;4.53;;;27.80;99.90;;;;;;4992197;28;20185;-67
2021/07/29 12:29:51;;;;;;;4.93;4.53;;;26.90;99.90;;;;;;4992569;28;20169;-68
2021/07/29 12:32:27;;;;;;;4.90;4.53;;;25.90;99.90;;;;;;4991735;28;20616;-67
2021/07/29 13:36:58;;;;;;;5.57;5.28;;;26.20;99.90;;;;;;5072908;27;21094;-66
2021/07/29 13:39:23;;;;;;;5.10;4.68;;;25.40;99.90;;;;;;5068547;28;20178;-66
2021/07/29 13:41:51;;;;;;;4.95;4.57;;;24.50;99.90;;;;;;5068649;28;20171;-65
2021/07/29 13:44:20;;;;;;;6.07;5.68;;;24.10;99.90;;;;;;5068441;28;20261;-66
2021/07/29 13:46:50;;;;;;;5.22;4.70;;;24.10;99.90;;;;;;5068668;28;20190;-65
2021/07/29 13:49:16;;;;;;;5.05;4.55;;;24.50;99.90;;;;;;5068336;28;20206;-66
2021/07/29 13:51:42;;;;;;;4.63;4.00;;;24.60;99.90;;;;;;5068563;28;20645;-65
2021/07/29 13:54:08;;;;;;;4.45;4.13;;;24.60;99.90;;;;;;5068222;28;20228;-65